createdAt,value
2018-08-20T00:00:27.550Z,20.82
2018-08-20T00:02:55.490Z,20.86
2018-08-20T00:05:23.966Z,20.74
2018-08-20T00:07:51.666Z,20.59
2018-08-20T00:10:21.679Z,21.02
2018-08-20T00:12:48.542Z,20.20
2018-08-20T00:15:16.498Z,20.16
2018-08-20T00:17:43.451Z,20.27
2018-08-20T00:20:10.991Z,20.12
2018-08-20T00:22:37.866Z,20.12
2018-08-20T00:25:16.236Z,20.06
2018-08-20T00:27:43.680Z,19.84
2018-08-20T00:30:12.739Z,19.65
2018-08-20T00:32:43.191Z,19.70
2018-08-20T00:35:12.895Z,19.63
2018-08-20T00:37:51.163Z,19.52
2018-08-20T00:40:18.870Z,19.44
2018-08-20T00:42:45.874Z,19.45
2018-08-20T00:45:12.766Z,19.37
2018-08-20T00:47:42.975Z,19.41
2018-08-20T00:50:12.947Z,19.37
2018-08-20T00:52:39.888Z,19.40
2018-08-20T00:55:09.176Z,19.44
2018-08-20T00:57:36.090Z,19.26
2018-08-20T01:00:03.058Z,19.40
2018-08-20T01:02:31.014Z,19.51
2018-08-20T01:05:01.461Z,19.93
2018-08-20T01:07:29.347Z,19.74
2018-08-20T01:09:57.513Z,19.77
2018-08-20T01:12:25.237Z,19.38
2018-08-20T01:14:53.259Z,19.50
2018-08-20T01:17:21.438Z,19.51
2018-08-20T01:19:48.427Z,19.47
2018-08-20T01:22:15.434Z,19.31
2018-08-20T01:24:45.447Z,19.28
2018-08-20T01:27:17.203Z,19.27
2018-08-20T01:29:44.986Z,19.17
2018-08-20T01:32:11.874Z,19.03
2018-08-20T01:34:43.858Z,19.09
2018-08-20T01:37:13.115Z,18.98
2018-08-20T01:39:40.030Z,19.52
2018-08-20T01:42:07.058Z,19.79
2018-08-20T01:44:35.032Z,19.71
2018-08-20T01:47:02.007Z,19.44
2018-08-20T01:49:28.954Z,19.02
2018-08-20T01:51:58.875Z,18.87
2018-08-20T01:54:26.902Z,18.96
2018-08-20T01:56:58.896Z,18.86
2018-08-20T01:59:27.511Z,19.45
2018-08-20T02:01:54.441Z,19.07
2018-08-20T02:04:21.440Z,18.94
2018-08-20T02:06:52.107Z,18.97
2018-08-20T02:09:21.062Z,18.96
2018-08-20T02:11:49.015Z,18.79
2018-08-20T02:14:17.042Z,18.31
2018-08-20T02:16:45.486Z,18.19
2018-08-20T02:19:12.394Z,18.04
2018-08-20T02:21:39.359Z,17.91
2018-08-20T02:24:06.427Z,18.47
2018-08-20T02:26:33.410Z,18.17
2018-08-20T02:29:00.363Z,18.16
2018-08-20T02:31:28.434Z,18.11
2018-08-20T02:33:56.485Z,18.55
2018-08-20T02:36:24.015Z,18.74
2018-08-20T02:38:51.531Z,18.45
2018-08-20T02:41:18.454Z,18.14
2018-08-20T02:43:47.137Z,18.10
2018-08-20T02:46:14.050Z,18.20
2018-08-20T02:48:45.391Z,18.39
2018-08-20T02:51:12.322Z,18.04
2018-08-20T02:53:40.330Z,18.17
2018-08-20T02:56:07.258Z,17.98
2018-08-20T02:58:35.099Z,18.13
2018-08-20T03:01:08.102Z,17.99
2018-08-20T03:03:38.909Z,18.31
2018-08-20T03:06:05.778Z,18.14
2018-08-20T03:08:33.506Z,18.12
2018-08-20T03:11:07.235Z,18.39
2018-08-20T03:13:37.691Z,18.60
2018-08-20T03:16:05.566Z,18.73
2018-08-20T03:18:32.508Z,18.78
2018-08-20T03:20:59.434Z,18.81
2018-08-20T03:23:26.419Z,19.17
2018-08-20T03:25:54.416Z,18.97
2018-08-20T03:28:22.103Z,18.93
2018-08-20T03:30:49.059Z,18.56
2018-08-20T03:33:16.036Z,18.73
2018-08-20T03:35:42.983Z,17.96
2018-08-20T03:38:15.923Z,17.80
2018-08-20T03:40:43.491Z,17.72
2018-08-20T03:43:10.462Z,17.64
2018-08-20T03:45:41.427Z,17.88
2018-08-20T03:48:14.727Z,17.60
2018-08-20T03:50:42.526Z,17.46
2018-08-20T03:53:09.574Z,17.59
2018-08-20T03:55:39.655Z,17.57
2018-08-20T03:58:07.664Z,17.63
2018-08-20T04:00:34.628Z,17.83
2018-08-20T04:03:01.643Z,18.39
2018-08-20T04:05:28.559Z,18.19
2018-08-20T04:07:57.606Z,18.15
2018-08-20T04:10:27.654Z,17.97
2018-08-20T04:12:54.522Z,18.00
2018-08-20T04:15:35.691Z,18.03
2018-08-20T04:18:11.134Z,18.04
2018-08-20T04:20:38.701Z,18.37
2018-08-20T04:23:05.667Z,18.54
2018-08-20T04:25:33.776Z,18.05
2018-08-20T04:28:02.677Z,18.15
2018-08-20T04:30:30.603Z,18.06
2018-08-20T04:32:58.542Z,18.07
2018-08-20T04:35:26.106Z,18.14
2018-08-20T04:37:53.099Z,18.15
2018-08-20T04:40:28.956Z,18.18
2018-08-20T04:42:57.685Z,18.09
2018-08-20T04:45:24.643Z,18.20
2018-08-20T04:47:53.022Z,18.72
2018-08-20T04:50:20.797Z,18.53
2018-08-20T04:52:53.855Z,18.37
2018-08-20T04:55:22.667Z,18.36
2018-08-20T04:57:50.623Z,18.29
2018-08-20T05:00:18.566Z,18.50
2018-08-20T05:02:46.132Z,18.51
2018-08-20T05:05:13.621Z,19.10
2018-08-20T05:07:40.536Z,19.23
2018-08-20T05:10:13.655Z,19.09
2018-08-20T05:12:41.170Z,18.89
2018-08-20T05:15:12.443Z,18.92
2018-08-20T05:17:44.160Z,19.15
2018-08-20T05:20:14.675Z,19.07
2018-08-20T05:22:42.686Z,19.24
2018-08-20T05:25:12.595Z,19.16
2018-08-20T05:27:41.126Z,19.33
2018-08-20T05:30:10.661Z,19.58
2018-08-20T05:32:40.588Z,19.53
2018-08-20T05:35:13.615Z,18.94
2018-08-20T05:37:43.560Z,18.85
2018-08-20T05:40:15.479Z,19.01
2018-08-20T05:42:43.090Z,19.75
2018-08-20T05:45:13.055Z,19.69
2018-08-20T05:47:43.004Z,19.90
2018-08-20T05:50:09.993Z,20.30
2018-08-20T05:52:47.451Z,20.34
2018-08-20T05:55:17.456Z,20.55
2018-08-20T05:57:49.044Z,20.87
2018-08-20T06:00:17.207Z,20.78
2018-08-20T06:02:47.171Z,21.22
2018-08-20T06:05:15.643Z,21.21
2018-08-20T06:07:47.743Z,21.34
2018-08-20T06:10:20.634Z,21.32
2018-08-20T06:12:50.598Z,21.07
2018-08-20T06:15:24.035Z,21.80
2018-08-20T06:17:57.080Z,21.51
2018-08-20T06:20:24.258Z,21.74
2018-08-20T06:22:51.179Z,21.54
2018-08-20T06:25:18.146Z,21.65
2018-08-20T06:27:45.089Z,21.52
2018-08-20T06:30:15.934Z,21.03
2018-08-20T06:32:44.134Z,21.02
2018-08-20T06:35:11.667Z,20.98
2018-08-20T06:37:38.599Z,21.42
2018-08-20T06:40:07.550Z,21.72
2018-08-20T06:42:34.562Z,21.72
2018-08-20T06:45:01.486Z,21.87
2018-08-20T06:47:28.452Z,22.06
2018-08-20T06:49:55.403Z,22.30
2018-08-20T06:52:22.370Z,22.42
2018-08-20T06:54:49.322Z,22.71
2018-08-20T06:57:16.257Z,22.77
2018-08-20T06:59:43.206Z,22.53
2018-08-20T07:02:10.162Z,22.79
2018-08-20T07:04:37.246Z,23.06
2018-08-20T07:07:04.203Z,22.76
2018-08-20T07:09:31.184Z,23.13
2018-08-20T07:11:58.210Z,23.06
2018-08-20T07:14:25.183Z,23.36
2018-08-20T07:16:52.138Z,23.79
2018-08-20T07:19:26.994Z,23.59
2018-08-20T07:21:53.958Z,24.29
2018-08-20T07:24:20.853Z,23.85
2018-08-20T07:26:47.806Z,23.41
2018-08-20T07:29:19.598Z,23.79
2018-08-20T07:31:46.538Z,24.33
2018-08-20T07:34:13.386Z,24.58
2018-08-20T07:36:40.277Z,24.49
2018-08-20T07:39:07.248Z,24.24
2018-08-20T07:41:34.187Z,24.72
2018-08-20T07:44:01.126Z,24.39
2018-08-20T07:46:28.098Z,24.52
2018-08-20T07:48:56.257Z,24.40
2018-08-20T07:51:23.167Z,24.47
2018-08-20T07:53:50.103Z,24.84
2018-08-20T07:56:16.969Z,24.76
2018-08-20T07:58:43.889Z,24.81
2018-08-20T08:01:10.839Z,24.91
2018-08-20T08:03:37.721Z,25.07
2018-08-20T08:06:05.171Z,25.09
2018-08-20T08:08:32.272Z,25.72
2018-08-20T08:10:59.144Z,25.41
2018-08-20T08:13:26.095Z,25.99
2018-08-20T08:15:53.049Z,25.96
2018-08-20T08:18:19.985Z,25.91
2018-08-20T08:20:46.922Z,25.87
2018-08-20T08:23:13.915Z,25.87
2018-08-20T08:25:40.867Z,26.89
2018-08-20T08:28:07.811Z,26.88
2018-08-20T08:30:34.754Z,26.77
2018-08-20T08:33:01.756Z,26.74
2018-08-20T08:35:28.710Z,26.55
2018-08-20T08:37:55.672Z,26.72
2018-08-20T08:40:22.587Z,27.01
2018-08-20T08:42:49.547Z,27.08
2018-08-20T08:45:17.646Z,27.00
2018-08-20T08:47:45.038Z,26.66
2018-08-20T08:50:12.478Z,26.87
2018-08-20T08:52:39.438Z,26.85
2018-08-20T08:55:06.698Z,26.98
2018-08-20T08:57:33.865Z,26.99
2018-08-20T09:00:00.830Z,27.03
2018-08-20T09:02:27.836Z,26.82
2018-08-20T09:04:54.802Z,26.93
2018-08-20T09:07:21.703Z,26.92
2018-08-20T09:09:48.650Z,27.02
2018-08-20T09:12:15.614Z,27.43
2018-08-20T09:14:42.617Z,27.17
2018-08-20T09:17:09.538Z,27.51
2018-08-20T09:19:36.512Z,28.20
2018-08-20T09:22:03.477Z,28.35
2018-08-20T09:24:31.237Z,27.60
2018-08-20T09:26:58.231Z,27.45
2018-08-20T09:29:25.143Z,27.87
2018-08-20T09:31:52.089Z,27.60
2018-08-20T09:34:19.058Z,27.67
2018-08-20T09:36:46.006Z,27.59
2018-08-20T09:39:12.974Z,27.35
2018-08-20T09:41:39.957Z,27.84
2018-08-20T09:44:06.906Z,27.84
2018-08-20T09:46:33.799Z,27.83
2018-08-20T09:49:00.730Z,28.32
2018-08-20T09:51:27.670Z,28.64
2018-08-20T09:53:54.634Z,28.24
2018-08-20T09:56:21.554Z,27.62
2018-08-20T09:58:48.538Z,27.61
2018-08-20T10:01:15.499Z,28.02
2018-08-20T10:03:44.794Z,28.43
2018-08-20T10:06:12.271Z,27.86
2018-08-20T10:08:39.768Z,28.09
2018-08-20T10:11:06.823Z,28.42
2018-08-20T10:13:34.735Z,28.38
2018-08-20T10:16:01.630Z,28.67
2018-08-20T10:18:28.595Z,29.29
2018-08-20T10:20:55.550Z,28.90
2018-08-20T10:23:22.510Z,28.30
2018-08-20T10:25:49.485Z,27.92
2018-08-20T10:28:16.454Z,28.32
2018-08-20T10:30:43.665Z,28.23
2018-08-20T10:33:10.614Z,28.05
2018-08-20T10:35:37.524Z,28.02
2018-08-20T10:38:05.597Z,28.82
2018-08-20T10:40:32.538Z,28.80
2018-08-20T10:42:59.511Z,28.69
2018-08-20T10:45:32.115Z,28.82
2018-08-20T10:47:59.040Z,28.70
2018-08-20T10:50:25.986Z,28.16
2018-08-20T10:52:52.954Z,28.32
2018-08-20T10:55:19.919Z,28.20
2018-08-20T10:57:48.914Z,28.72
2018-08-20T11:00:16.110Z,28.53
2018-08-20T11:02:43.103Z,29.17
2018-08-20T11:05:12.604Z,29.18
2018-08-20T11:07:39.631Z,28.80
2018-08-20T11:10:06.665Z,28.42
2018-08-20T11:12:33.515Z,28.95
2018-08-20T11:15:00.490Z,28.85
2018-08-20T11:17:27.364Z,28.91
2018-08-20T11:19:54.308Z,28.96
2018-08-20T11:22:21.311Z,29.73
2018-08-20T11:24:48.214Z,29.99
2018-08-20T11:27:15.074Z,30.01
2018-08-20T11:29:41.948Z,29.96
2018-08-20T11:32:09.140Z,29.57
2018-08-20T11:34:36.291Z,29.65
2018-08-20T11:37:03.210Z,29.79
2018-08-20T11:39:30.170Z,30.08
2018-08-20T11:41:57.196Z,29.80
2018-08-20T11:44:24.825Z,29.33
2018-08-20T11:46:51.777Z,29.46
2018-08-20T11:49:18.748Z,29.13
2018-08-20T11:51:45.670Z,29.33
2018-08-20T11:54:12.654Z,29.11
2018-08-20T11:56:39.794Z,29.16
2018-08-20T11:59:06.847Z,28.86
2018-08-20T12:01:34.315Z,29.13
2018-08-20T12:04:01.403Z,29.28
2018-08-20T12:06:28.344Z,29.47
2018-08-20T12:08:55.262Z,29.18
2018-08-20T12:11:22.170Z,29.29
2018-08-20T12:13:49.462Z,28.92
2018-08-20T12:16:16.369Z,29.11
2018-08-20T12:18:43.343Z,28.86
2018-08-20T12:21:10.527Z,29.16
2018-08-20T12:23:37.439Z,29.06
2018-08-20T12:26:04.401Z,28.50
2018-08-20T12:28:33.410Z,28.63
2018-08-20T12:31:00.985Z,28.28
2018-08-20T12:33:27.843Z,28.37
2018-08-20T12:35:54.806Z,28.34
2018-08-20T12:38:21.793Z,28.33
2018-08-20T12:40:48.713Z,28.29
2018-08-20T12:43:16.364Z,28.34
2018-08-20T12:45:45.290Z,28.28
2018-08-20T12:48:16.550Z,28.37
2018-08-20T12:50:46.510Z,28.69
2018-08-20T12:53:13.442Z,28.78
2018-08-20T12:55:42.470Z,28.83
2018-08-20T12:58:09.579Z,28.77
2018-08-20T13:00:36.539Z,29.18
2018-08-20T13:03:03.419Z,29.30
2018-08-20T13:05:30.358Z,29.53
2018-08-20T13:07:57.846Z,29.51
2018-08-20T13:10:24.794Z,29.35
2018-08-20T13:12:51.766Z,29.50
2018-08-20T13:15:18.682Z,29.27
2018-08-20T13:17:48.611Z,29.57
2018-08-20T13:20:15.540Z,29.35
2018-08-20T13:22:42.447Z,29.71
2018-08-20T13:25:09.506Z,30.08
2018-08-20T13:27:36.498Z,30.04
2018-08-20T13:30:08.037Z,30.01
2018-08-20T13:32:35.041Z,29.87
2018-08-20T13:35:01.967Z,29.40
2018-08-20T13:37:28.967Z,29.18
2018-08-20T13:39:55.873Z,29.42
2018-08-20T13:42:23.452Z,29.54
2018-08-20T13:44:50.412Z,29.85
2018-08-20T13:47:17.322Z,29.92
2018-08-20T13:49:44.542Z,29.69
2018-08-20T13:52:11.478Z,29.64
2018-08-20T13:54:38.446Z,29.70
2018-08-20T13:57:05.434Z,29.90
2018-08-20T13:59:32.354Z,30.23
2018-08-20T14:01:59.217Z,30.14
2018-08-20T14:04:26.166Z,30.33
2018-08-20T14:06:53.126Z,30.02
2018-08-20T14:09:20.043Z,30.75
2018-08-20T14:11:46.938Z,30.31
2018-08-20T14:14:13.890Z,30.38
2018-08-20T14:16:40.788Z,30.36
2018-08-20T14:19:07.667Z,30.03
2018-08-20T14:21:34.553Z,30.38
2018-08-20T14:24:01.515Z,30.25
2018-08-20T14:26:28.486Z,29.75
2018-08-20T14:28:55.436Z,29.83
2018-08-20T14:31:22.370Z,30.13
2018-08-20T14:33:50.914Z,29.83
2018-08-20T14:36:17.842Z,29.70
2018-08-20T14:38:44.809Z,29.59
2018-08-20T14:41:12.458Z,28.96
2018-08-20T14:43:39.442Z,29.18
2018-08-20T14:46:12.079Z,29.57
2018-08-20T14:48:39.003Z,29.45
2018-08-20T14:51:05.848Z,28.94
2018-08-20T14:53:33.589Z,29.16
2018-08-20T14:56:00.478Z,29.27
2018-08-20T14:58:27.418Z,29.36
2018-08-20T15:00:54.390Z,29.52
2018-08-20T15:03:21.343Z,29.41
2018-08-20T15:05:48.336Z,29.27
2018-08-20T15:08:15.306Z,29.55
2018-08-20T15:10:42.212Z,29.18
2018-08-20T15:13:09.214Z,29.12
2018-08-20T15:15:36.220Z,29.44
2018-08-20T15:18:03.924Z,29.22
2018-08-20T15:20:30.830Z,29.25
2018-08-20T15:22:57.709Z,29.40
2018-08-20T15:25:24.672Z,29.73
2018-08-20T15:27:51.541Z,29.79
2018-08-20T15:30:18.490Z,29.76
2018-08-20T15:32:45.511Z,29.62
2018-08-20T15:35:12.413Z,29.73
2018-08-20T15:37:39.409Z,29.66
2018-08-20T15:40:06.310Z,29.42
2018-08-20T15:42:33.378Z,29.39
2018-08-20T15:45:00.575Z,29.20
2018-08-20T15:47:27.497Z,29.32
2018-08-20T15:49:54.442Z,29.20
2018-08-20T15:52:21.409Z,29.48
2018-08-20T15:54:48.382Z,29.61
2018-08-20T15:57:15.313Z,29.43
2018-08-20T15:59:42.286Z,29.44
2018-08-20T16:02:09.381Z,29.45
2018-08-20T16:04:36.291Z,29.36
2018-08-20T16:07:03.366Z,29.53
2018-08-20T16:09:30.327Z,29.42
2018-08-20T16:11:57.281Z,29.34
2018-08-20T16:14:25.084Z,29.44
2018-08-20T16:16:54.570Z,29.32
2018-08-20T16:19:21.504Z,29.14
2018-08-20T16:21:48.494Z,29.17
2018-08-20T16:24:15.485Z,29.07
2018-08-20T16:26:42.421Z,28.76
2018-08-20T16:29:09.383Z,28.85
2018-08-20T16:31:36.410Z,28.97
2018-08-20T16:34:03.402Z,28.75
2018-08-20T16:36:31.345Z,28.93
2018-08-20T16:38:59.041Z,28.73
2018-08-20T16:41:25.962Z,28.79
2018-08-20T16:43:52.949Z,28.86
2018-08-20T16:46:21.090Z,28.98
2018-08-20T16:48:48.508Z,29.12
2018-08-20T16:51:15.450Z,29.23
2018-08-20T16:53:43.430Z,29.27
2018-08-20T16:56:11.445Z,29.21
2018-08-20T16:58:38.398Z,29.31
2018-08-20T17:01:12.042Z,28.96
2018-08-20T17:03:38.914Z,28.92
2018-08-20T17:06:05.800Z,28.87
2018-08-20T17:08:32.741Z,28.90
2018-08-20T17:11:00.034Z,28.88
2018-08-20T17:13:26.973Z,28.96
2018-08-20T17:15:53.939Z,28.89
2018-08-20T17:18:20.900Z,28.87
2018-08-20T17:20:47.854Z,28.90
2018-08-20T17:23:20.893Z,28.94
2018-08-20T17:25:47.826Z,28.77
2018-08-20T17:28:18.805Z,28.58
2018-08-20T17:30:45.726Z,28.64
2018-08-20T17:33:12.698Z,28.58
2018-08-20T17:35:41.247Z,28.47
2018-08-20T17:38:08.203Z,28.45
2018-08-20T17:40:36.345Z,28.42
2018-08-20T17:43:03.279Z,28.38
2018-08-20T17:45:31.923Z,28.27
2018-08-20T17:47:59.189Z,27.91
2018-08-20T17:50:40.434Z,27.77
2018-08-20T17:53:08.219Z,27.62
2018-08-20T17:55:35.309Z,27.62
2018-08-20T17:58:02.268Z,27.63
2018-08-20T18:00:39.451Z,27.45
2018-08-20T18:03:22.151Z,27.32
2018-08-20T18:05:50.978Z,27.26
2018-08-20T18:08:22.614Z,27.10
2018-08-20T18:10:50.369Z,26.98
2018-08-20T18:13:31.790Z,26.81
2018-08-20T18:16:00.837Z,26.66
2018-08-20T18:18:29.183Z,26.52
2018-08-20T18:20:58.394Z,26.41
2018-08-20T18:23:25.288Z,26.26
2018-08-20T18:25:53.155Z,26.22
2018-08-20T18:28:20.103Z,26.02
2018-08-20T18:30:50.619Z,25.88
2018-08-20T18:33:21.211Z,25.80
2018-08-20T18:35:55.687Z,25.54
2018-08-20T18:38:23.647Z,25.65
2018-08-20T18:40:51.611Z,25.67
2018-08-20T18:43:20.192Z,25.91
2018-08-20T18:45:48.686Z,25.41
2018-08-20T18:48:22.490Z,25.27
2018-08-20T18:50:50.282Z,25.30
2018-08-20T18:53:18.971Z,25.33
2018-08-20T18:55:59.375Z,25.64
2018-08-20T18:58:29.939Z,25.12
2018-08-20T19:00:57.852Z,25.11
2018-08-20T19:03:25.738Z,25.02
2018-08-20T19:05:53.779Z,25.61
2018-08-20T19:08:24.393Z,25.10
2018-08-20T19:10:51.335Z,25.00
2018-08-20T19:13:18.307Z,24.94
2018-08-20T19:15:52.690Z,24.80
2018-08-20T19:18:22.011Z,24.62
2018-08-20T19:20:49.046Z,24.56
2018-08-20T19:23:16.002Z,24.77
2018-08-20T19:25:43.015Z,24.76
2018-08-20T19:28:29.170Z,24.74
2018-08-20T19:30:56.305Z,24.66
2018-08-20T19:33:25.567Z,24.50
2018-08-20T19:35:53.148Z,24.24
2018-08-20T19:38:20.106Z,24.19
2018-08-20T19:40:58.406Z,24.10
2018-08-20T19:43:26.630Z,24.01
2018-08-20T19:46:00.900Z,24.18
2018-08-20T19:48:27.802Z,24.33
2018-08-20T19:50:54.767Z,24.28
2018-08-20T19:53:24.174Z,24.41
2018-08-20T19:55:51.943Z,24.11
2018-08-20T19:58:24.754Z,23.87
2018-08-20T20:01:03.291Z,24.38
2018-08-20T20:03:31.350Z,23.79
2018-08-20T20:05:58.315Z,23.67
2018-08-20T20:08:25.275Z,23.71
2018-08-20T20:10:52.253Z,23.77
2018-08-20T20:13:19.185Z,23.83
2018-08-20T20:15:50.328Z,23.88
2018-08-20T20:18:17.372Z,23.86
2018-08-20T20:20:44.254Z,23.87
2018-08-20T20:23:11.233Z,23.86
2018-08-20T20:25:38.187Z,23.75
2018-08-20T20:28:05.794Z,23.79
2018-08-20T20:30:32.678Z,23.72
2018-08-20T20:32:59.654Z,23.51
2018-08-20T20:35:26.621Z,23.50
2018-08-20T20:37:53.583Z,23.61
2018-08-20T20:40:20.527Z,23.59
2018-08-20T20:42:47.642Z,23.66
2018-08-20T20:45:15.561Z,23.61
2018-08-20T20:47:43.133Z,23.55
2018-08-20T20:50:10.161Z,23.49
2018-08-20T20:52:37.097Z,23.39
2018-08-20T20:55:04.798Z,23.26
2018-08-20T20:57:31.701Z,23.27
2018-08-20T20:59:59.378Z,23.28
2018-08-20T21:02:26.282Z,23.30
2018-08-20T21:04:57.542Z,23.24
2018-08-20T21:07:29.134Z,23.17
2018-08-20T21:09:57.046Z,23.10
2018-08-20T21:12:23.942Z,23.03
2018-08-20T21:14:50.835Z,23.02
2018-08-20T21:17:18.706Z,23.02
2018-08-20T21:19:46.308Z,23.03
2018-08-20T21:22:13.139Z,23.01
2018-08-20T21:24:40.686Z,23.04
2018-08-20T21:27:13.611Z,23.02
2018-08-20T21:29:40.918Z,22.96
2018-08-20T21:32:07.834Z,22.92
2018-08-20T21:34:38.818Z,22.95
2018-08-20T21:37:05.811Z,22.95
2018-08-20T21:39:32.710Z,22.93
2018-08-20T21:41:59.654Z,22.89
2018-08-20T21:44:26.613Z,22.86
2018-08-20T21:46:53.533Z,22.84
2018-08-20T21:49:21.253Z,22.82
2018-08-20T21:51:56.594Z,22.68
2018-08-20T21:54:29.288Z,22.63
2018-08-20T21:56:56.222Z,22.66
2018-08-20T21:59:23.218Z,22.60
2018-08-20T22:01:50.174Z,22.59
2018-08-20T22:04:19.173Z,22.46
2018-08-20T22:06:46.326Z,22.58
2018-08-20T22:09:13.291Z,22.47
2018-08-20T22:11:40.254Z,22.39
2018-08-20T22:14:07.203Z,22.42
2018-08-20T22:16:37.741Z,22.28
2018-08-20T22:19:05.174Z,22.35
2018-08-20T22:21:32.094Z,22.34
2018-08-20T22:24:00.346Z,22.36
2018-08-20T22:26:29.369Z,22.35
2018-08-20T22:28:56.826Z,22.34
2018-08-20T22:31:23.795Z,22.42
2018-08-20T22:33:57.661Z,22.48
2018-08-20T22:36:25.178Z,22.51
2018-08-20T22:38:54.179Z,22.47
2018-08-20T22:41:23.397Z,22.54
2018-08-20T22:43:50.659Z,22.43
2018-08-20T22:46:18.338Z,22.40
2018-08-20T22:48:46.518Z,22.43
2018-08-20T22:51:14.766Z,22.42
2018-08-20T22:53:45.599Z,22.42
2018-08-20T22:56:19.254Z,22.41
2018-08-20T22:58:46.245Z,22.42
2018-08-20T23:01:13.186Z,22.43
2018-08-20T23:03:41.065Z,22.61
2018-08-20T23:06:08.014Z,22.52
2018-08-20T23:08:34.982Z,22.55
2018-08-20T23:11:01.942Z,22.58
2018-08-20T23:13:29.052Z,22.53
2018-08-20T23:15:56.136Z,22.53
2018-08-20T23:18:23.202Z,22.61
2018-08-20T23:20:50.174Z,22.59
2018-08-20T23:23:27.066Z,22.62
2018-08-20T23:25:59.818Z,22.63
2018-08-20T23:28:26.739Z,22.66
2018-08-20T23:31:01.258Z,22.57
2018-08-20T23:33:28.846Z,22.57
2018-08-20T23:35:55.786Z,22.53
2018-08-20T23:38:22.721Z,22.56
2018-08-20T23:40:49.710Z,22.56
2018-08-20T23:43:16.682Z,22.53
2018-08-20T23:45:43.618Z,22.53
2018-08-20T23:48:10.542Z,22.51
2018-08-20T23:50:37.525Z,22.45
2018-08-20T23:53:04.486Z,22.42
2018-08-20T23:55:31.450Z,22.47
2018-08-20T23:57:58.370Z,22.49
